sensor_id;sensor_type;location;lat;lon;timestamp;pressure;altitude;pressure_sealevel;temperature;humidity
55014;BME280;40916;51.632;5.552;2023-03-08T00:00:05;996.3798049341145;;;-0.20249559525193206;0
55014;BME280;40916;51.632;5.552;2023-03-08T00:01:08;996.5003233513501;;;-0.17954705472341814;0
55014;BME280;40916;51.632;5.552;2023-03-08T00:02:04;996.4487280243642;;;-0.19484536159935928;0
55014;BME280;40916;51.632;5.552;2023-03-08T00:03:04;996.4421834444637;;;-0.18719584817957724;0
55014;BME280;40916;51.632;5.552;2023-03-08T00:04:04;996.439229702944;;;-0.17954705472341814;0
55014;BME280;40916;51.632;5.552;2023-03-08T00:05:05;996.503917096398;;;-0.17954705472341814;0
55014;BME280;40916;51.632;5.552;2023-03-08T00:06:05;996.4193340903126;;;-0.20249559525193206;0
55014;BME280;40916;51.632;5.552;2023-03-08T00:07:04;996.4480825761943;;;-0.20249559525193206;0
55014;BME280;40916;51.632;5.552;2023-03-08T00:08:04;996.4150929648663;;;-0.21014654940659128;0
55014;BME280;40916;51.632;5.552;2023-03-08T00:09:05;996.4232558201513;;;-0.24075757643678486;0
55014;BME280;40916;51.632;5.552;2023-03-08T00:10:05;996.3651036212052;;;-0.2484121371460688;0
55014;BME280;40916;51.632;5.552;2023-03-08T00:11:05;996.327177176817;;;-0.27138015307924235;0
55014;BME280;40916;51.632;5.552;2023-03-08T00:12:05;996.2827194907321;;;-0.286695777909884;0
55014;BME280;40916;51.632;5.552;2023-03-08T00:13:05;996.3215658016063;;;-0.29435467539969906;0
55014;BME280;40916;51.632;5.552;2023-03-08T00:14:05;996.2355203602771;;;-0.3326600244344107;0
55014;BME280;40916;51.632;5.552;2023-03-08T00:15:06;996.2965932405406;;;-0.3326600244344107;0
55014;BME280;40916;51.632;5.552;2023-03-08T00:16:06;996.2226649682246;;;-0.3556519328937746;0
55014;BME280;40916;51.632;5.552;2023-03-08T00:17:05;996.286628016991;;;-0.3633173538503591;0
55014;BME280;40916;51.632;5.552;2023-03-08T00:18:06;996.1832279786031;;;-0.39398630228521725;0
55014;BME280;40916;51.632;5.552;2023-03-08T00:19:06;996.2320905232133;;;-0.4093251390829131;0
55014;BME280;40916;51.632;5.552;2023-03-08T00:20:06;996.3190122338867;;;-0.40165535690844933;0
55014;BME280;40916;51.632;5.552;2023-03-08T00:21:06;996.2751696070941;;;-0.44768497278194985;0
55014;BME280;40916;51.632;5.552;2023-03-08T00:22:06;996.2335232157437;;;-0.4323388536439481;0
55014;BME280;40916;51.632;5.552;2023-03-08T00:23:07;996.2428662624185;;;-0.4093251390829131;0
55014;BME280;40916;51.632;5.552;2023-03-08T00:24:06;996.2442925572718;;;-0.39398630228521725;0
55014;BME280;40916;51.632;5.552;2023-03-08T00:25:07;996.317551274327;;;-0.3786503746013352;0
55014;BME280;40916;51.632;5.552;2023-03-08T00:26:07;996.2450016784576;;;-0.38631797494040754;0
55014;BME280;40916;51.632;5.552;2023-03-08T00:27:06;996.3232504916913;;;-0.3556519328937746;0
55014;BME280;40916;51.632;5.552;2023-03-08T00:28:07;996.2988006683955;;;-0.347987237853566;0
55014;BME280;40916;51.632;5.552;2023-03-08T00:29:07;996.266469057088;;;-0.347987237853566;0
55014;BME280;40916;51.632;5.552;2023-03-08T00:30:07;996.2994945552778;;;-0.3403232684577304;0
55014;BME280;40916;51.632;5.552;2023-03-08T00:31:07;996.2542975040719;;;-0.3633173538503591;0
55014;BME280;40916;51.632;5.552;2023-03-08T00:32:07;996.3067747977656;;;-0.3786503746013352;0
55014;BME280;40916;51.632;5.552;2023-03-08T00:33:07;996.2694368050959;;;-0.39398630228521725;0
55014;BME280;40916;51.632;5.552;2023-03-08T00:34:07;996.2306538516071;;;-0.424666887177505;0
55014;BME280;40916;51.632;5.552;2023-03-08T00:35:08;996.2378374340536;;;-0.424666887177505;0
55014;BME280;40916;51.632;5.552;2023-03-08T00:36:09;996.2450210169549;;;-0.424666887177505;0
55014;BME280;40916;51.632;5.552;2023-03-08T00:37:07;996.2917143168943;;;-0.424666887177505;0
55014;BME280;40916;51.632;5.552;2023-03-08T00:38:08;996.2866731547163;;;-0.4400115487542635;0
55014;BME280;40916;51.632;5.552;2023-03-08T00:39:08;996.2600721877454;;;-0.4553591260006442;0
55014;BME280;40916;51.632;5.552;2023-03-08T00:40:08;996.2457059946903;;;-0.4553591260006442;0
55014;BME280;40916;51.632;5.552;2023-03-08T00:41:08;996.2449725670863;;;-0.4630340086841258;0
55014;BME280;40916;51.632;5.552;2023-03-08T00:42:10;996.2923961287677;;;-0.4553591260006442;0
55014;BME280;40916;51.632;5.552;2023-03-08T00:43:08;996.2255408123284;;;-0.47838596354121776;0
55014;BME280;40916;51.632;5.552;2023-03-08T00:44:08;996.220565161219;;;-0.4553591260006442;0
55014;BME280;40916;51.632;5.552;2023-03-08T00:45:09;996.1982832442245;;;-0.4630340086841258;0
55014;BME280;40916;51.632;5.552;2023-03-08T00:46:09;996.2298707443571;;;-0.4707096211062982;0
55014;BME280;40916;51.632;5.552;2023-03-08T00:47:09;996.1688165233877;;;-0.4707096211062982;0
55014;BME280;40916;51.632;5.552;2023-03-08T00:48:09;996.3110857114181;;;-0.44768497278194985;0
55014;BME280;40916;51.632;5.552;2023-03-08T00:49:09;996.2169736140348;;;-0.4553591260006442;0
55014;BME280;40916;51.632;5.552;2023-03-08T00:50:09;996.2852130299673;;;-0.4553591260006442;0
55014;BME280;40916;51.632;5.552;2023-03-08T00:51:10;996.2449725670863;;;-0.4630340086841258;0
55014;BME280;40916;51.632;5.552;2023-03-08T00:52:09;996.3390862820509;;;-0.4553591260006442;0
55014;BME280;40916;51.632;5.552;2023-03-08T00:53:09;996.3283116295887;;;-0.4553591260006442;0
55014;BME280;40916;51.632;5.552;2023-03-08T00:54:09;996.1745213718181;;;-0.4860630362630687;0
55014;BME280;40916;51.632;5.552;2023-03-08T00:55:09;996.2786691819375;;;-0.4860630362630687;0
55014;BME280;40916;51.632;5.552;2023-03-08T00:56:09;996.1924778839865;;;-0.4860630362630687;0
55014;BME280;40916;51.632;5.552;2023-03-08T00:57:09;996.2004012623488;;;-0.47838596354121776;0
55014;BME280;40916;51.632;5.552;2023-03-08T00:58:10;996.1888865813254;;;-0.4860630362630687;0
55014;BME280;40916;51.632;5.552;2023-03-08T00:59:10;996.1571688099204;;;-0.5167786355082953;0
55014;BME280;40916;51.632;5.552;2023-03-08T01:00:10;996.1248492935943;;;-0.5167786355082953;0
55014;BME280;40916;51.632;5.552;2023-03-08T01:01:11;996.155658954382;;;-0.5321408239914263;0
55014;BME280;40916;51.632;5.552;2023-03-08T01:02:10;996.1138756533852;;;-0.5551895989803022;0
55014;BME280;40916;51.632;5.552;2023-03-08T01:03:10;996.1448861470699;;;-0.5321408239914263;0
55014;BME280;40916;51.632;5.552;2023-03-08T01:04:10;996.069252592439;;;-0.5705591136956265;0
55014;BME280;40916;51.632;5.552;2023-03-08T01:05:10;996.0756626497777;;;-0.5782449712972166;0
55014;BME280;40916;51.632;5.552;2023-03-08T01:06:12;996.118749469234;;;-0.5782449712972166;0
55014;BME280;40916;51.632;5.552;2023-03-08T01:07:10;996.2272403513058;;;-0.5705591136956265;0
55014;BME280;40916;51.632;5.552;2023-03-08T01:08:11;996.1466989012831;;;-0.5859315627626813;0
55014;BME280;40916;51.632;5.552;2023-03-08T01:09:11;996.0346172447025;;;-0.5936188883681375;0
55014;BME280;40916;51.632;5.552;2023-03-08T01:10:11;996.0928412810471;;;-0.5859315627626813;0
55014;BME280;40916;51.632;5.552;2023-03-08T01:11:14;996.0769232112575;;;-0.6013069483898406;0
55014;BME280;40916;51.632;5.552;2023-03-08T01:12:11;996.1100166006917;;;-0.5936188883681375;0
55014;BME280;40916;51.632;5.552;2023-03-08T01:13:11;996.0892507739397;;;-0.5859315627626813;0
55014;BME280;40916;51.632;5.552;2023-03-08T01:14:11;996.0561599127316;;;-0.5936188883681375;0
55014;BME280;40916;51.632;5.552;2023-03-08T01:15:11;996.02228628979;;;-0.6089957431041881;0
55014;BME280;40916;51.632;5.552;2023-03-08T01:16:15;995.9827927553;;;-0.6089957431041881;0
55014;BME280;40916;51.632;5.552;2023-03-08T01:17:11;995.9899733969125;;;-0.6089957431041881;0
55014;BME280;40916;51.632;5.552;2023-03-08T01:18:12;995.972802103519;;;-0.6013069483898406;0
55014;BME280;40916;51.632;5.552;2023-03-08T01:19:12;995.9109863641603;;;-0.6089957431041881;0
55014;BME280;40916;51.632;5.552;2023-03-08T01:20:12;995.9476694366506;;;-0.6013069483898406;0
55014;BME280;40916;51.632;5.552;2023-03-08T01:21:12;995.8591569612104;;;-0.6243755377170679;0
55014;BME280;40916;51.632;5.552;2023-03-08T01:22:12;995.9289379576865;;;-0.6089957431041881;0
55014;BME280;40916;51.632;5.552;2023-03-08T01:23:12;995.9181670012299;;;-0.6089957431041881;0
55014;BME280;40916;51.632;5.552;2023-03-08T01:24:12;995.867902551281;;;-0.6089957431041881;0
55014;BME280;40916;51.632;5.552;2023-03-08T01:25:12;995.8750831856253;;;-0.6089957431041881;0
55014;BME280;40916;51.632;5.552;2023-03-08T01:26:13;995.8607219173911;;;-0.6089957431041881;0
55014;BME280;40916;51.632;5.552;2023-03-08T01:27:13;995.8571316006165;;;-0.6089957431041881;0
55014;BME280;40916;51.632;5.552;2023-03-08T01:28:12;995.8766378040889;;;-0.5936188883681375;0
55014;BME280;40916;51.632;5.552;2023-03-08T01:29:12;995.8104574928809;;;-0.6089957431041881;0
55014;BME280;40916;51.632;5.552;2023-03-08T01:30:13;995.8953635588178;;;-0.5859315627626813;0
55014;BME280;40916;51.632;5.552;2023-03-08T01:31:13;995.7314705850514;;;-0.6089957431041881;0
55014;BME280;40916;51.632;5.552;2023-03-08T01:32:13;995.6935255457832;;;-0.5936188883681375;0
55014;BME280;40916;51.632;5.552;2023-03-08T01:33:13;995.732246806054;;;-0.6013069483898406;0
55014;BME280;40916;51.632;5.552;2023-03-08T01:34:13;995.7086576646839;;;-0.5859315627626813;0
55014;BME280;40916;51.632;5.552;2023-03-08T01:35:13;995.7058347887972;;;-0.5782449712972166;0
55014;BME280;40916;51.632;5.552;2023-03-08T01:36:14;995.6835242023889;;;-0.5859315627626813;0
55014;BME280;40916;51.632;5.552;2023-03-08T01:37:13;995.6476192659071;;;-0.5859315627626813;0
55014;BME280;40916;51.632;5.552;2023-03-08T01:38:13;995.6548002522949;;;-0.5859315627626813;0
55014;BME280;40916;51.632;5.552;2023-03-08T01:39:13;995.6396690554419;;;-0.5936188883681375;0
55014;BME280;40916;51.632;5.552;2023-03-08T01:40:14;995.5519550898583;;;-0.6089957431041881;0
55014;BME280;40916;51.632;5.552;2023-03-08T01:41:14;995.6140043317176;;;-0.5628739896819326;0
55014;BME280;40916;51.632;5.552;2023-03-08T01:42:14;995.5183615886158;;;-0.5859315627626813;0
55014;BME280;40916;51.632;5.552;2023-03-08T01:43:21;995.4055232632659;;;-0.6013069483898406;0
55014;BME280;40916;51.632;5.552;2023-03-08T01:44:14;995.5263071353926;;;-0.5782449712972166;0
55014;BME280;40916;51.632;5.552;2023-03-08T01:46:16;995.4875722846272;;;-0.5705591136956265;0
55014;BME280;40916;51.632;5.552;2023-03-08T01:46:19;995.4724488947422;;;-0.5782449712972166;0
55014;BME280;40916;51.632;5.552;2023-03-08T01:47:15;995.5788549048593;;;-0.5551895989803022;0
55014;BME280;40916;51.632;5.552;2023-03-08T01:48:14;995.4682949063282;;;-0.5475059413150234;0
55014;BME280;40916;51.632;5.552;2023-03-08T01:49:15;995.4862488691618;;;-0.5475059413150234;0
55014;BME280;40916;51.632;5.552;2023-03-08T01:50:14;995.5459473973575;;;-0.5244593637823947;0
55014;BME280;40916;51.632;5.552;2023-03-08T01:51:15;995.4295455542338;;;-0.5398230164105406;0
55014;BME280;40916;51.632;5.552;2023-03-08T01:52:15;995.4792002598462;;;-0.5090986388941197;0
55014;BME280;40916;51.632;5.552;2023-03-08T01:53:15;995.41815162099;;;-0.5090986388941197;0
55014;BME280;40916;51.632;5.552;2023-03-08T01:54:16;995.4188872498692;;;-0.5014193736649872;0
55014;BME280;40916;51.632;5.552;2023-03-08T01:55:15;995.3183349154028;;;-0.5014193736649872;0
55014;BME280;40916;51.632;5.552;2023-03-08T01:56:16;995.4490806558317;;;-0.4860630362630687;0
55014;BME280;40916;51.632;5.552;2023-03-08T01:57:16;995.3477958604244;;;-0.4937408395461702;0
55014;BME280;40916;51.632;5.552;2023-03-08T01:58:15;995.5108614908748;;;-0.47838596354121776;0
55014;BME280;40916;51.632;5.552;2023-03-08T01:59:15;995.3894802349316;;;-0.4707096211062982;0
55014;BME280;40916;51.632;5.552;2023-03-08T02:00:18;995.3787060380288;;;-0.4707096211062982;0
55014;BME280;40916;51.632;5.552;2023-03-08T02:01:16;995.3686530944234;;;-0.4630340086841258;0
55014;BME280;40916;51.632;5.552;2023-03-08T02:02:17;995.339200658135;;;-0.4707096211062982;0
55014;BME280;40916;51.632;5.552;2023-03-08T02:03:16;995.4002544328572;;;-0.4707096211062982;0
55014;BME280;40916;51.632;5.552;2023-03-08T02:04:16;995.3643404437491;;;-0.4707096211062982;0
55014;BME280;40916;51.632;5.552;2023-03-08T02:05:17;995.3212436718195;;;-0.4707096211062982;0
55014;BME280;40916;51.632;5.552;2023-03-08T02:06:16;995.3981038228146;;;-0.4553591260006442;0
55014;BME280;40916;51.632;5.552;2023-03-08T02:07:16;995.4383275936445;;;-0.44768497278194985;0
55014;BME280;40916;51.632;5.552;2023-03-08T02:08:16;995.4160614303186;;;-0.4553591260006442;0
55014;BME280;40916;51.632;5.552;2023-03-08T02:09:16;995.3370479785526;;;-0.4553591260006442;0
55014;BME280;40916;51.632;5.552;2023-03-08T02:10:16;995.3765546975602;;;-0.4553591260006442;0
55014;BME280;40916;51.632;5.552;2023-03-08T02:11:17;995.3018475070927;;;-0.44768497278194985;0
55014;BME280;40916;51.632;5.552;2023-03-08T02:12:17;995.2508515484482;;;-0.4553591260006442;0
55014;BME280;40916;51.632;5.552;2023-03-08T02:13:17;995.2479738338916;;;-0.44768497278194985;0
55014;BME280;40916;51.632;5.552;2023-03-08T02:14:17;995.2149363885572;;;-0.4553591260006442;0
55014;BME280;40916;51.632;5.552;2023-03-08T02:15:18;995.293200243269;;;-0.424666887177505;0
55014;BME280;40916;51.632;5.552;2023-03-08T02:16:17;995.1638969049111;;;-0.424666887177505;0
55014;BME280;40916;51.632;5.552;2023-03-08T02:17:17;995.1746721774814;;;-0.424666887177505;0
55014;BME280;40916;51.632;5.552;2023-03-08T02:18:17;995.2299512486604;;;-0.4093251390829131;0
55014;BME280;40916;51.632;5.552;2023-03-08T02:19:19;995.2457112183209;;;-0.39398630228521725;0
55014;BME280;40916;51.632;5.552;2023-03-08T02:20:18;995.1882391784048;;;-0.39398630228521725;0
55014;BME280;40916;51.632;5.552;2023-03-08T02:21:17;995.2017647245631;;;-0.3633173538503591;0
55014;BME280;40916;51.632;5.552;2023-03-08T02:22:17;995.1658422763416;;;-0.3633173538503591;0
55014;BME280;40916;51.632;5.552;2023-03-08T02:23:18;995.1658422763416;;;-0.3633173538503591;0
55014;BME280;40916;51.632;5.552;2023-03-08T02:24:18;995.047298277874;;;-0.3633173538503591;0
55014;BME280;40916;51.632;5.552;2023-03-08T02:25:19;994.9976841389721;;;-0.3556519328937746;0
55014;BME280;40916;51.632;5.552;2023-03-08T02:26:18;995.0751418788103;;;-0.3326600244344107;0
55014;BME280;40916;51.632;5.552;2023-03-08T02:27:19;994.9781448340243;;;-0.3326600244344107;0
55014;BME280;40916;51.632;5.552;2023-03-08T02:28:19;994.9013649830232;;;-0.347987237853566;0
55014;BME280;40916;51.632;5.552;2023-03-08T02:29:18;994.9549866009421;;;-0.3096746418828964;0
55014;BME280;40916;51.632;5.552;2023-03-08T02:30:22;994.8824742032843;;;-0.31733571141851513;0
55014;BME280;40916;51.632;5.552;2023-03-08T02:31:18;994.8645112037497;;;-0.31733571141851513;0
55014;BME280;40916;51.632;5.552;2023-03-08T02:32:18;994.8687627148397;;;-0.3096746418828964;0
55014;BME280;40916;51.632;5.552;2023-03-08T02:33:19;994.8550480688605;;;-0.3020142966336863;0
55014;BME280;40916;51.632;5.552;2023-03-08T02:34:19;994.9288581155519;;;-0.2790376038933253;0
55014;BME280;40916;51.632;5.552;2023-03-08T02:35:19;994.9115398131679;;;-0.27138015307924235;0
55014;BME280;40916;51.632;5.552;2023-03-08T02:36:19;994.904353881742;;;-0.27138015307924235;0
55014;BME280;40916;51.632;5.552;2023-03-08T02:37:19;994.8468664467131;;;-0.27138015307924235;0
55014;BME280;40916;51.632;5.552;2023-03-08T02:38:20;994.8181227401172;;;-0.27138015307924235;0
55014;BME280;40916;51.632;5.552;2023-03-08T02:39:19;994.8426284138548;;;-0.2790376038933253;0
55014;BME280;40916;51.632;5.552;2023-03-08T02:40:19;994.9422076652553;;;-0.2484121371460688;0
55014;BME280;40916;51.632;5.552;2023-03-08T02:41:19;994.9487551356414;;;-0.2560674199760591;0
55014;BME280;40916;51.632;5.552;2023-03-08T02:42:19;994.9255107280698;;;-0.23310373757810154;0
55014;BME280;40916;51.632;5.552;2023-03-08T02:43:20;994.8380063896509;;;-0.2484121371460688;0
55014;BME280;40916;51.632;5.552;2023-03-08T02:44:20;994.8680184217768;;;-0.23310373757810154;0
55014;BME280;40916;51.632;5.552;2023-03-08T02:45:20;994.8530134944583;;;-0.24075757643678486;0
55014;BME280;40916;51.632;5.552;2023-03-08T02:46:20;994.803967952;;;-0.22545062030004104;0
55014;BME280;40916;51.632;5.552;2023-03-08T02:47:20;994.8075612790034;;;-0.22545062030004104;0
55014;BME280;40916;51.632;5.552;2023-03-08T02:48:20;994.7536613858961;;;-0.22545062030004104;0
55014;BME280;40916;51.632;5.552;2023-03-08T02:49:20;994.7099147296274;;;-0.23310373757810154;0
55014;BME280;40916;51.632;5.552;2023-03-08T02:50:20;994.6680449776865;;;-0.21779822433277118;0
55014;BME280;40916;51.632;5.552;2023-03-08T02:51:20;994.6902263492843;;;-0.21014654940659128;0
55014;BME280;40916;51.632;5.552;2023-03-08T02:52:20;994.6614787944303;;;-0.21014654940659128;0
55014;BME280;40916;51.632;5.552;2023-03-08T02:53:20;994.6830394598883;;;-0.21014654940659128;0
55014;BME280;40916;51.632;5.552;2023-03-08T02:54:21;994.7489575780329;;;-0.19484536159935928;0
55014;BME280;40916;51.632;5.552;2023-03-08T02:55:21;994.6848863346959;;;-0.18719584817957724;0
55014;BME280;40916;51.632;5.552;2023-03-08T02:56:21;994.7022412021342;;;-0.19484536159935928;0
55014;BME280;40916;51.632;5.552;2023-03-08T02:57:21;994.6806798043584;;;-0.19484536159935928;0
55014;BME280;40916;51.632;5.552;2023-03-08T02:58:21;994.7010845105259;;;-0.1642516266259797;0
55014;BME280;40916;51.632;5.552;2023-03-08T02:59:21;994.7340319203039;;;-0.15660499144704687;0
55014;BME280;40916;51.632;5.552;2023-03-08T03:00:21;994.7088748249397;;;-0.15660499144704687;0
55014;BME280;40916;51.632;5.552;2023-03-08T03:01:21;994.6926967152326;;;-0.13366939816621937;0
55014;BME280;40916;51.632;5.552;2023-03-08T03:02:21;994.6879112795364;;;-0.14895907515641582;0
55014;BME280;40916;51.632;5.552;2023-03-08T03:03:21;994.7070729237639;;;-0.13366939816621937;0
55014;BME280;40916;51.632;5.552;2023-03-08T03:04:22;994.7076649379252;;;-0.12602563693006985;0
55014;BME280;40916;51.632;5.552;2023-03-08T03:05:22;994.7406018672391;;;-0.11838259350904323;0
55014;BME280;40916;51.632;5.552;2023-03-08T03:06:22;994.7094250650423;;;-0.10309865904066129;0
55014;BME280;40916;51.632;5.552;2023-03-08T03:07:22;994.6519163581052;;;-0.10309865904066129;0
55014;BME280;40916;51.632;5.552;2023-03-08T03:08:22;994.6812516291716;;;-0.09545776745778412;0
55014;BME280;40916;51.632;5.552;2023-03-08T03:09:22;994.6231620155634;;;-0.10309865904066129;0
55014;BME280;40916;51.632;5.552;2023-03-08T03:10:22;994.7111613360148;;;-0.08017813425685105;0
55014;BME280;40916;51.632;5.552;2023-03-08T03:11:22;994.6962075635603;;;-0.08781759261899325;0
55014;BME280;40916;51.632;5.552;2023-03-08T03:12:22;994.6757894236573;;;-0.07253939210407268;0
55014;BME280;40916;51.632;5.552;2023-03-08T03:13:22;994.6650058143564;;;-0.07253939210407268;0
55014;BME280;40916;51.632;5.552;2023-03-08T03:14:22;994.687143421352;;;-0.06490136589349405;0
55014;BME280;40916;51.632;5.552;2023-03-08T03:15:23;994.6097535852496;;;-0.04199158024531968;0
55014;BME280;40916;51.632;5.552;2023-03-08T03:16:23;994.5942500863772;;;-0.057264055358082544;0
55014;BME280;40916;51.632;5.552;2023-03-08T03:17:23;994.5013510293531;;;-0.04962746023094766;0
55014;BME280;40916;51.632;5.552;2023-03-08T03:18:23;994.4341651498173;;;-0.034356415134570994;0
55014;BME280;40916;51.632;5.552;2023-03-08T03:19:23;994.459882259413;;;-0.02672196463220189;0
55014;BME280;40916;51.632;5.552;2023-03-08T03:20:23;994.4604328995656;;;-0.019088228471844104;0
55014;BME280;40916;51.632;5.552;2023-03-08T03:21:23;994.4435508811206;;;-0.0038228981123751282;0
55014;BME280;40916;51.632;5.552;2023-03-08T03:22:23;994.4877754316918;;;0.011439578072121037;0
55014;BME280;40916;51.632;5.552;2023-03-08T03:23:23;994.5494326971761;;;0.019069746513263652;0
55014;BME280;40916;51.632;5.552;2023-03-08T03:24:23;994.4748127168334;;;-0.019088228471844104;0
55014;BME280;40916;51.632;5.552;2023-03-08T03:25:23;994.4322207842766;;;-0.011455206387271488;0
55014;BME280;40916;51.632;5.552;2023-03-08T03:26:24;994.3818906023783;;;-0.011455206387271488;0
55014;BME280;40916;51.632;5.552;2023-03-08T03:27:24;994.2909223919648;;;-0.02672196463220189;0
55014;BME280;40916;51.632;5.552;2023-03-08T03:28:24;994.3843895215974;;;-0.02672196463220189;0
55014;BME280;40916;51.632;5.552;2023-03-08T03:29:24;994.4095537619569;;;-0.02672196463220189;0
55014;BME280;40916;51.632;5.552;2023-03-08T03:30:24;994.3617142429457;;;-0.04199158024531968;0
55014;BME280;40916;51.632;5.552;2023-03-08T03:31:24;994.383282859889;;;-0.04199158024531968;0
55014;BME280;40916;51.632;5.552;2023-03-08T03:32:24;994.3893549204494;;;-0.057264055358082544;0
55014;BME280;40916;51.632;5.552;2023-03-08T03:33:24;994.3486870639941;;;-0.07253939210407268;0
55014;BME280;40916;51.632;5.552;2023-03-08T03:34:24;994.36854318767;;;-0.09545776745778412;0
55014;BME280;40916;51.632;5.552;2023-03-08T03:35:24;994.3571846923824;;;-0.10309865904066129;0
55014;BME280;40916;51.632;5.552;2023-03-08T03:36:25;994.2919105809484;;;-0.11074026763518319;0
55014;BME280;40916;51.632;5.552;2023-03-08T03:37:25;994.2548075968072;;;-0.12602563693006985;0
55014;BME280;40916;51.632;5.552;2023-03-08T03:38:25;994.2254709292067;;;-0.13366939816621937;0
55014;BME280;40916;51.632;5.552;2023-03-08T03:39:25;994.1889446360152;;;-0.14131387748559376;0
55014;BME280;40916;51.632;5.552;2023-03-08T03:40:25;994.1524169142376;;;-0.14895907515641582;0
55014;BME280;40916;51.632;5.552;2023-03-08T03:41:25;994.0511984530019;;;-0.15660499144704687;0
55014;BME280;40916;51.632;5.552;2023-03-08T03:42:25;994.0470130792608;;;-0.1642516266259797;0
55014;BME280;40916;51.632;5.552;2023-03-08T03:43:25;994.0116661149043;;;-0.15660499144704687;0
55014;BME280;40916;51.632;5.552;2023-03-08T03:44:27;994.0038876228372;;;-0.1642516266259797;0
55014;BME280;40916;51.632;5.552;2023-03-08T03:45:25;993.8871039882681;;;-0.18719584817957724;0
55014;BME280;40916;51.632;5.552;2023-03-08T03:46:26;993.9715435412728;;;-0.1642516266259797;0
55014;BME280;40916;51.632;5.552;2023-03-08T03:47:26;993.9164501131988;;;-0.17954705472341814;0
55014;BME280;40916;51.632;5.552;2023-03-08T03:48:26;993.970355073727;;;-0.17954705472341814;0
55014;BME280;40916;51.632;5.552;2023-03-08T03:49:26;993.9559804150829;;;-0.17954705472341814;0
55014;BME280;40916;51.632;5.552;2023-03-08T03:50:26;993.9308247668365;;;-0.17954705472341814;0
55014;BME280;40916;51.632;5.552;2023-03-08T03:51:26;993.9451994222946;;;-0.17954705472341814;0
55014;BME280;40916;51.632;5.552;2023-03-08T03:52:26;993.9308247668365;;;-0.17954705472341814;0
55014;BME280;40916;51.632;5.552;2023-03-08T03:53:27;993.9272311032564;;;-0.17954705472341814;0
55014;BME280;40916;51.632;5.552;2023-03-08T03:54:26;993.8793174254125;;;-0.19484536159935928;0
55014;BME280;40916;51.632;5.552;2023-03-08T03:55:26;993.9056691241653;;;-0.17954705472341814;0
55014;BME280;40916;51.632;5.552;2023-03-08T03:56:26;994.0098853943852;;;-0.17954705472341814;0
55014;BME280;40916;51.632;5.552;2023-03-08T03:57:27;993.8835103867813;;;-0.18719584817957724;0
55014;BME280;40916;51.632;5.552;2023-03-08T03:58:27;993.9679497550011;;;-0.1642516266259797;0
55014;BME280;40916;51.632;5.552;2023-03-08T03:59:27;993.9409606128513;;;-0.14131387748559376;0
55014;BME280;40916;51.632;5.552;2023-03-08T04:00:27;993.9379483245368;;;-0.13366939816621937;0
55014;BME280;40916;51.632;5.552;2023-03-08T04:01:28;993.8774278594253;;;-0.12602563693006985;0
55014;BME280;40916;51.632;5.552;2023-03-08T04:02:27;993.8761189975711;;;-0.09545776745778412;0
55014;BME280;40916;51.632;5.552;2023-03-08T04:03:27;993.8957776607084;;;-0.07253939210407268;0
55014;BME280;40916;51.632;5.552;2023-03-08T04:04:27;993.90296668474;;;-0.07253939210407268;0
55014;BME280;40916;51.632;5.552;2023-03-08T04:05:27;993.7807533381268;;;-0.07253939210407268;0
55014;BME280;40916;51.632;5.552;2023-03-08T04:06:28;993.8836109530835;;;-0.04199158024531968;0
55014;BME280;40916;51.632;5.552;2023-03-08T04:07:27;993.8656371844725;;;-0.04199158024531968;0
55014;BME280;40916;51.632;5.552;2023-03-08T04:08:28;993.9206495194563;;;-0.02672196463220189;0
55014;BME280;40916;51.632;5.552;2023-03-08T04:09:28;993.937180345474;;;0.003808696618808227;0
55014;BME280;40916;51.632;5.552;2023-03-08T04:10:28;993.9042909515264;;;-0.0038228981123751282;0
55014;BME280;40916;51.632;5.552;2023-03-08T04:11:30;993.7563602040431;;;-0.011455206387271488;0
55014;BME280;40916;51.632;5.552;2023-03-08T04:12:28;993.8257317024423;;;0.003808696618808227;0